Lockhart, Minnesota
Current Conditions -  °F | °C
As of 4:55 PM on Wednesday 22 Oct 2014 (Local Time) from K3N8 Reporting Station
Overcast Overcast  
Wind Chill: 61°   Ceiling: 3900
Heat Index: 61°   Visibility: 10mi
Dew Point: 46°   Wind: 13mph
Humidity: 57%   Direction: 170°S
Pressure: 29.86"   Gusts: 20mph
Location:  47.3701°N, 96.4867°W
Report Text: K3N8 222155Z AUTO 17011G17KT 10SM OVC039 16/08 A2986 RMK AO2 T01600075
Loading
Personal Weather Stations






























Interactive Weather Map
Tropical Storm Tracking
New forecast layout! Learn more

10-Day Weather Forecast

Advertisements
Track Severe Weather on mobile